Time;durP1;ratioP1;P1;durP2;ratioP2;P2;SDS_P1;SDS_P2;PMS_P1;PMS_P2;Temp;Humidity;BMP_temperature;BMP_pressure;BME280_temperature;BME280_humidity;BME280_pressure;Samples;Min_cycle;Max_cycle;Signal;HPM_P1;HPM_P2
2020/12/11 00:02:24;;;;;;;21.30;16.10;;;-0.40;99.90;;;0.62;77.06;93147.25;4930237;28;20237;-83
2020/12/11 00:04:52;;;;;;;22.20;15.97;;;-0.40;99.90;;;0.57;76.97;93138.53;4897421;29;20205;-82
2020/12/11 00:07:18;;;;;;;24.43;17.60;;;-0.30;99.90;;;0.62;77.04;93156.88;4895467;29;20201;-80
2020/12/11 00:09:44;;;;;;;25.43;17.03;;;-0.30;99.90;;;0.70;77.06;93157.38;4872527;29;20725;-83
2020/12/11 00:12:12;;;;;;;22.90;17.50;;;-0.20;99.90;;;0.61;77.52;93145.66;4892468;29;20202;-82
2020/12/11 00:14:38;;;;;;;23.13;16.63;;;-0.30;99.90;;;0.60;77.91;93151.09;4851146;29;20190;-83
2020/12/11 00:17:14;;;;;;;23.20;17.73;;;-0.30;99.90;;;0.48;76.96;93135.41;4866037;29;20224;-83
2020/12/11 00:19:42;;;;;;;22.97;16.60;;;-0.40;99.90;;;0.39;76.93;93127.13;4879919;29;20211;-82
2020/12/11 00:22:26;;;;;;;23.87;16.87;;;-0.50;99.90;;;0.30;77.72;93127.66;4880460;29;20300;-82
2020/12/11 00:25:13;;;;;;;22.73;16.40;;;-0.70;99.90;;;0.29;77.13;93134.69;4881359;29;20200;-83
2020/12/11 00:27:49;;;;;;;23.93;16.27;;;-0.60;99.90;;;0.28;77.84;93116.66;4935108;29;20674;-82
2020/12/11 00:30:24;;;;;;;22.53;16.20;;;-0.60;99.90;;;0.32;77.62;93110.00;4945103;29;20591;-83
2020/12/11 00:33:03;;;;;;;26.07;17.73;;;-0.70;99.90;;;0.36;77.57;93111.16;4933529;29;20281;-83
2020/12/11 00:35:40;;;;;;;23.80;17.03;;;-0.60;99.90;;;0.39;77.03;93113.31;4955600;28;20774;-83
2020/12/11 00:38:31;;;;;;;26.27;18.30;;;-0.60;99.90;;;0.32;77.63;93121.22;5015482;28;20204;-82
2020/12/11 00:41:05;;;;;;;24.33;17.13;;;-0.60;99.90;;;0.34;76.93;93113.16;4967387;28;20657;-82
2020/12/11 00:43:40;;;;;;;25.37;17.47;;;-0.70;99.90;;;0.28;77.65;93104.44;5042827;28;20326;-83
2020/12/11 00:46:35;;;;;;;26.13;18.63;;;-0.60;99.90;;;0.28;77.10;93109.63;5062556;28;20189;-82
2020/12/11 00:49:11;;;;;;;26.50;17.90;;;-0.70;99.90;;;0.36;77.69;93106.72;4982326;28;20227;-83
2020/12/11 00:51:37;;;;;;;26.33;18.33;;;-0.50;99.90;;;0.37;77.71;93100.47;4969636;28;20191;-83
2020/12/11 00:54:12;;;;;;;27.80;17.87;;;-0.60;99.90;;;0.30;77.88;93101.63;5014829;28;20189;-83
2020/12/11 00:56:49;;;;;;;27.73;19.50;;;-0.70;99.90;;;0.32;77.14;93096.97;5001686;28;20203;-83
2020/12/11 00:59:26;;;;;;;29.13;19.17;;;-0.60;99.90;;;0.37;77.70;93102.31;5005528;28;20189;-82
2020/12/11 01:02:04;;;;;;;25.03;17.60;;;-0.60;99.90;;;0.43;77.80;93109.25;4994833;28;20184;-83
2020/12/11 01:04:30;;;;;;;24.87;17.90;;;-0.60;99.90;;;0.45;77.89;93099.38;4953258;28;20201;-83
2020/12/11 01:06:56;;;;;;;24.50;16.30;;;-0.60;99.90;;;0.48;77.43;93083.28;4982046;28;20192;-83
2020/12/11 01:09:26;;;;;;;23.80;16.97;;;-0.50;99.90;;;0.27;77.60;93071.56;4998544;28;20212;-82
2020/12/11 01:11:52;;;;;;;23.23;16.53;;;-0.60;99.90;;;0.44;77.08;93092.56;5005983;28;20204;-82
2020/12/11 01:14:47;;;;;;;23.47;16.53;;;-0.40;99.90;;;0.40;77.04;93075.81;5004990;28;20213;-82
2020/12/11 01:17:16;;;;;;;21.83;16.03;;;-0.50;99.90;;;0.51;77.51;93075.81;4983310;28;20616;-82
2020/12/11 01:19:52;;;;;;;20.90;15.60;;;-0.50;99.90;;;0.39;77.77;93063.78;4944067;28;20194;-82
2020/12/11 01:22:30;;;;;;;21.37;15.67;;;-0.60;99.90;;;0.18;77.05;93048.66;4926953;28;20205;-83
2020/12/11 01:25:05;;;;;;;20.30;15.17;;;-0.70;99.90;;;0.17;77.02;93034.84;4933192;28;20285;-82
2020/12/11 01:28:20;;;;;;;21.40;15.53;;;-0.70;99.90;;;0.28;77.71;93033.28;4959732;28;20197;-82
2020/12/11 01:31:06;;;;;;;21.07;14.57;;;-0.70;99.90;;;0.23;77.68;93027.97;4899086;29;20287;-82
2020/12/11 01:33:49;;;;;;;19.13;14.20;;;-0.80;99.90;;;0.11;77.20;93035.75;4899106;29;20220;-82
2020/12/11 01:36:34;;;;;;;18.80;14.13;;;-0.80;99.90;;;0.13;77.53;93064.19;4899065;29;20638;-83
2020/12/11 01:39:03;;;;;;;17.53;11.97;;;-0.80;99.90;;;0.14;77.61;93035.28;4896646;29;20200;-82
2020/12/11 01:41:44;;;;;;;15.50;11.40;;;-0.70;99.90;;;0.03;77.28;93028.25;4899128;29;20208;-83
2020/12/11 01:44:11;;;;;;;15.87;11.67;;;-0.90;99.90;;;-0.11;77.34;93016.44;4914391;29;20357;-82
2020/12/11 01:46:51;;;;;;;15.40;11.73;;;-1.00;99.90;;;-0.09;77.75;93028.22;4883565;29;20392;-82
2020/12/11 01:49:39;;;;;;;15.70;11.23;;;-1.00;99.90;;;-0.44;77.71;93021.28;4886684;29;20201;-82
2020/12/11 01:52:37;;;;;;;17.83;13.13;;;-1.30;99.90;;;-0.65;77.22;93019.91;4895625;29;21152;-82
2020/12/11 01:55:03;;;;;;;15.80;11.23;;;-1.50;99.90;;;-0.46;77.89;93036.28;4943337;28;20194;-83
2020/12/11 01:58:13;;;;;;;15.83;11.27;;;-1.40;99.90;;;-0.42;77.98;93025.25;4953440;28;20304;-82
2020/12/11 02:00:42;;;;;;;16.50;11.47;;;-1.40;99.90;;;-0.47;77.52;93017.28;4950538;29;20449;-82
2020/12/11 02:03:30;;;;;;;18.30;12.93;;;-1.40;99.90;;;-0.66;77.18;93019.13;4971899;28;20214;-81
2020/12/11 02:05:56;;;;;;;17.67;12.43;;;-1.40;99.90;;;-0.77;77.59;93016.47;4956095;28;20217;-82
2020/12/11 02:08:22;;;;;;;20.77;12.43;;;-1.60;99.90;;;-1.02;77.13;93003.53;4976315;28;20205;-82
2020/12/11 02:10:52;;;;;;;18.13;12.80;;;-1.90;99.90;;;-1.06;77.08;92984.19;4981020;28;20184;-82
2020/12/11 02:13:30;;;;;;;26.50;13.83;;;-1.90;99.90;;;-1.30;77.76;92985.03;5024007;28;20185;-84
2020/12/11 02:15:58;;;;;;;25.73;14.13;;;-2.20;99.90;;;-1.21;77.43;92996.75;4992070;28;20642;-82
2020/12/11 02:18:36;;;;;;;25.33;15.13;;;-2.10;99.90;;;-1.09;77.50;92990.59;5006820;28;20334;-83
2020/12/11 02:21:03;;;;;;;20.80;13.60;;;-2.20;99.90;;;-0.96;77.13;92984.47;4997069;28;20290;-83
2020/12/11 02:24:06;;;;;;;20.73;13.90;;;-2.10;99.90;;;-0.82;77.26;92956.50;5013018;28;20199;-82
2020/12/11 02:26:55;;;;;;;21.60;13.30;;;-1.80;99.90;;;-0.62;77.85;92975.25;4932834;28;20691;-82
2020/12/11 02:29:21;;;;;;;19.77;13.63;;;-1.70;99.90;;;-0.58;77.90;92956.41;4941641;28;20350;-83
2020/12/11 02:32:02;;;;;;;18.73;13.00;;;-1.60;99.90;;;-0.56;77.12;92974.38;4929356;28;20706;-82
2020/12/11 02:34:31;;;;;;;18.90;13.33;;;-1.40;99.90;;;-0.59;77.74;92969.63;4985832;28;20203;-82
2020/12/11 02:37:03;;;;;;;19.10;12.80;;;-1.60;99.90;;;-0.69;77.14;92967.53;4942441;28;20246;-83
2020/12/11 02:39:41;;;;;;;16.90;12.53;;;-1.60;99.90;;;-0.49;77.52;92972.50;4942059;29;20187;-83
2020/12/11 02:42:18;;;;;;;18.13;12.77;;;-1.50;99.90;;;-0.35;77.34;92960.09;4964738;28;20185;-82
2020/12/11 02:44:46;;;;;;;20.50;13.23;;;-1.20;99.90;;;-0.30;77.88;92940.19;4969751;28;20679;-83
2020/12/11 02:47:18;;;;;;;17.67;12.77;;;-1.30;99.90;;;-0.43;77.31;92929.16;4956873;28;20195;-82
2020/12/11 02:49:55;;;;;;;18.07;12.37;;;-1.40;99.90;;;-0.61;77.51;92930.03;4970585;28;20677;-82
2020/12/11 02:52:23;;;;;;;18.27;12.53;;;-1.50;99.90;;;-0.64;77.69;92927.88;4965846;28;20186;-83
2020/12/11 02:54:51;;;;;;;18.50;12.87;;;-1.50;99.90;;;-0.69;77.34;92919.94;4967280;28;20745;-81
2020/12/11 02:57:25;;;;;;;18.57;12.90;;;-1.60;99.90;;;-0.78;77.30;92911.66;4940966;29;20309;-82
2020/12/11 03:00:06;;;;;;;20.40;13.60;;;-1.70;99.90;;;-0.81;77.46;92912.09;4970756;28;20226;-82
2020/12/11 03:02:52;;;;;;;21.60;14.37;;;-1.70;99.90;;;-0.64;77.55;92904.47;5004886;28;20203;-83
2020/12/11 03:05:30;;;;;;;23.13;14.60;;;-1.60;99.90;;;-0.62;77.67;92900.63;4994088;28;20273;-82
2020/12/11 03:07:56;;;;;;;20.20;13.93;;;-1.50;99.90;;;-0.55;77.46;92887.53;4976290;28;735121;-82
2020/12/11 03:10:22;;;;;;;19.53;14.00;;;-1.50;99.90;;;-0.53;77.50;92888.09;5061810;28;20213;-82
2020/12/11 03:12:48;;;;;;;19.23;13.70;;;-1.50;99.90;;;-0.61;77.10;92888.41;5075474;28;20296;-82
2020/12/11 03:15:30;;;;;;;26.27;14.23;;;-1.40;99.90;;;-0.67;77.45;92874.47;5043353;28;20191;-83
2020/12/11 03:18:02;;;;;;;25.53;14.03;;;-1.50;99.90;;;-0.56;77.97;92878.91;5048717;28;20632;-83
2020/12/11 03:21:06;;;;;;;29.57;14.43;;;-1.50;99.90;;;-0.63;77.47;92865.22;5063153;28;20223;-82
2020/12/11 03:23:35;;;;;;;28.33;14.57;;;-1.50;99.90;;;-0.64;77.91;92858.41;5035632;28;20187;-82
2020/12/11 03:26:32;;;;;;;24.33;13.27;;;-1.60;99.90;;;-0.46;77.72;92861.97;4987970;28;20204;-82
2020/12/11 03:28:58;;;;;;;49.37;14.83;;;-1.40;99.90;;;-0.60;77.74;92841.34;4943641;28;20223;-82
2020/12/11 03:31:39;;;;;;;21.97;13.93;;;-1.50;99.90;;;-0.76;77.30;92855.00;4958538;28;20199;-83
2020/12/11 03:34:36;;;;;;;24.03;14.87;;;-1.70;99.90;;;-0.71;77.68;92844.75;4957088;29;20249;-83
2020/12/11 03:37:08;;;;;;;28.80;13.03;;;-1.60;99.90;;;-0.65;77.53;92835.25;4925300;29;20290;-81
2020/12/11 03:40:05;;;;;;;19.23;13.17;;;-1.60;99.90;;;-0.65;77.84;92837.84;4924343;29;20256;-82
2020/12/11 03:43:09;;;;;;;18.63;12.43;;;-1.60;99.90;;;-0.63;77.58;92820.19;4921805;29;20719;-82
2020/12/11 03:45:35;;;;;;;18.93;11.37;;;-1.50;99.90;;;-0.56;77.62;92826.88;4844982;29;20213;-82
2020/12/11 03:48:03;;;;;;;19.80;12.23;;;-1.50;99.90;;;-0.48;77.91;92822.38;4833213;29;20278;-82
2020/12/11 03:50:59;;;;;;;33.40;12.93;;;-1.50;99.90;;;-0.39;77.64;92821.81;4828821;29;20234;-81
2020/12/11 03:53:49;;;;;;;26.77;12.27;;;-1.30;99.90;;;-0.54;77.74;92798.84;4821695;29;20215;-82
2020/12/11 03:56:35;;;;;;;35.67;12.80;;;-1.30;99.90;;;-0.45;77.66;92814.91;4813660;29;20294;-83
2020/12/11 03:59:51;;;;;;;56.27;12.83;;;-1.30;99.90;;;-0.41;77.49;92807.47;4796256;29;20206;-82
2020/12/11 04:02:46;;;;;;;42.43;13.30;;;-1.40;99.90;;;-0.57;77.64;92790.69;4842802;29;20203;-82
2020/12/11 04:05:23;;;;;;;152.63;16.03;;;-1.40;99.90;;;-0.41;78.03;92803.06;4789852;29;20203;-82
2020/12/11 04:07:50;;;;;;;31.30;13.97;;;-1.40;99.90;;;-0.54;77.76;92790.25;4825403;29;20264;-82
2020/12/11 04:10:15;;;;;;;37.37;15.07;;;-1.40;99.90;;;-0.40;77.79;92796.81;4820616;29;20211;-82
2020/12/11 04:12:41;;;;;;;30.60;13.37;;;-1.30;99.90;;;-0.35;77.95;92794.34;4840189;29;20283;-83
2020/12/11 04:15:09;;;;;;;87.90;15.33;;;-1.30;99.90;;;-0.35;77.77;92773.53;4838447;29;20195;-82
2020/12/11 04:17:35;;;;;;;33.37;13.80;;;-1.20;99.90;;;-0.36;78.07;92768.53;4865541;29;20235;-82
2020/12/11 04:20:06;;;;;;;135.83;15.70;;;-1.20;99.90;;;-0.35;78.26;92764.91;4894778;29;20204;-82
2020/12/11 04:22:52;;;;;;;75.67;15.57;;;-1.20;99.90;;;-0.36;77.97;92766.72;4896111;29;20297;-82
2020/12/11 04:25:19;;;;;;;188.73;15.63;;;-1.20;99.90;;;-0.25;77.88;92762.53;4862070;29;20202;-83
2020/12/11 04:28:16;;;;;;;19.43;12.17;;;-1.10;99.90;;;-0.37;77.81;92785.94;4875479;29;20236;-82
2020/12/11 04:30:58;;;;;;;48.20;12.93;;;-1.30;99.90;;;-0.42;77.73;92792.84;4899125;29;20217;-82
2020/12/11 04:33:25;;;;;;;43.23;14.63;;;-1.20;99.90;;;-0.41;77.47;92778.84;4898827;29;20215;-82
2020/12/11 04:36:16;;;;;;;18.90;13.17;;;-1.30;99.90;;;-0.34;78.22;92798.53;4889433;29;20296;-83
2020/12/11 04:38:58;;;;;;;22.00;13.50;;;-1.20;99.90;;;-0.20;78.29;92793.91;4908369;29;20270;-82
2020/12/11 04:41:38;;;;;;;38.07;13.87;;;-1.20;99.90;;;-0.25;78.28;92775.56;4941716;28;20619;-82
2020/12/11 04:44:07;;;;;;;34.70;13.57;;;-1.20;99.90;;;-0.36;77.86;92756.31;4962347;28;20197;-82
2020/12/11 04:46:35;;;;;;;73.47;15.77;;;-1.20;99.90;;;-0.38;77.85;92763.56;4994372;28;20197;-82
2020/12/11 04:49:01;;;;;;;79.47;16.07;;;-1.30;99.90;;;-0.35;78.51;92764.91;4962242;28;20660;-82
2020/12/11 04:51:50;;;;;;;40.43;15.10;;;-1.30;99.90;;;-0.35;77.79;92765.72;4946002;28;20752;-82
2020/12/11 04:54:37;;;;;;;44.27;14.23;;;-1.20;99.90;;;-0.32;78.29;92767.06;4977816;28;20561;-83
2020/12/11 04:57:22;;;;;;;27.27;13.73;;;-1.20;99.90;;;-0.29;77.92;92774.41;4986754;28;20224;-82
2020/12/11 04:59:51;;;;;;;37.17;14.17;;;-1.20;99.90;;;-0.27;78.35;92765.34;4978587;28;20234;-82
2020/12/11 05:02:47;;;;;;;49.10;15.50;;;-1.00;99.90;;;-0.26;78.34;92779.16;4977657;28;20620;-82
2020/12/11 05:05:17;;;;;;;23.53;12.93;;;-1.10;99.90;;;-0.15;78.16;92781.78;4971330;28;20194;-82
2020/12/11 05:07:45;;;;;;;34.67;14.03;;;-1.00;99.90;;;-0.18;78.68;92786.66;4982977;28;20652;-82
2020/12/11 05:10:14;;;;;;;23.03;13.73;;;-1.10;99.90;;;-0.15;77.88;92794.81;5037277;28;20217;-82
2020/12/11 05:12:43;;;;;;;46.27;15.70;;;-0.80;99.90;;;-0.15;78.18;92787.00;5005676;28;20246;-82
2020/12/11 05:15:30;;;;;;;43.93;15.43;;;-1.00;99.90;;;-0.15;78.60;92796.59;5014714;28;20211;-82
2020/12/11 05:18:17;;;;;;;26.20;14.77;;;-1.00;99.90;;;-0.13;77.91;92795.34;5003497;28;20277;-82
2020/12/11 05:20:48;;;;;;;25.03;14.53;;;-1.00;99.90;;;-0.16;78.07;92797.63;5038421;28;20179;-81
2020/12/11 05:23:32;;;;;;;23.10;15.03;;;-1.00;99.90;;;-0.18;78.27;92797.06;5036199;28;20196;-81
2020/12/11 05:26:19;;;;;;;27.60;16.80;;;-1.00;99.90;;;-0.09;78.15;92801.69;5035554;28;20188;-82
2020/12/11 05:28:58;;;;;;;23.67;16.20;;;-1.00;99.90;;;-0.09;77.99;92780.88;5020006;28;20196;-81
2020/12/11 05:31:32;;;;;;;28.77;17.07;;;-1.00;99.90;;;-0.08;78.01;92792.88;5016988;28;20289;-81
2020/12/11 05:34:14;;;;;;;25.07;16.47;;;-1.00;99.90;;;-0.18;78.09;92776.25;5033001;28;20584;-83
2020/12/11 05:37:27;;;;;;;28.83;16.13;;;-1.00;99.90;;;-0.20;78.27;92788.69;5040315;28;20199;-82
2020/12/11 05:39:53;;;;;;;29.90;16.27;;;-1.10;99.90;;;-0.20;78.53;92766.03;5000684;28;20187;-81
2020/12/11 05:42:25;;;;;;;37.03;16.13;;;-1.10;99.90;;;-0.19;78.29;92769.44;5048063;28;20734;-82
2020/12/11 05:45:18;;;;;;;38.87;17.37;;;-1.10;99.90;;;-0.12;77.72;92768.31;5078597;28;20194;-83
2020/12/11 05:47:58;;;;;;;26.60;16.27;;;-0.90;99.90;;;-0.22;78.45;92765.47;5089025;28;20213;-86
2020/12/11 05:50:38;;;;;;;23.67;16.43;;;-1.10;99.90;;;-0.27;78.05;92734.13;5066999;28;20190;-89
2020/12/11 05:53:18;;;;;;;29.60;16.93;;;-1.10;99.90;;;-0.16;78.50;92745.56;5073786;28;20202;-83
2020/12/11 05:55:53;;;;;;;44.00;17.53;;;-1.10;99.90;;;-0.15;78.31;92753.16;5069320;28;20609;-85
2020/12/11 05:58:34;;;;;;;29.50;17.07;;;-1.10;99.90;;;-0.08;78.07;92750.44;5083323;28;20206;-84
2020/12/11 06:01:03;;;;;;;38.17;17.10;;;-1.00;99.90;;;-0.27;78.15;92722.94;5066456;28;20203;-85
2020/12/11 06:03:47;;;;;;;26.70;16.13;;;-1.10;99.90;;;-0.19;78.62;92733.78;5061188;28;20190;-85
2020/12/11 06:06:34;;;;;;;26.97;16.40;;;-1.10;99.90;;;-0.15;78.11;92745.34;5087497;28;20191;-84
2020/12/11 06:09:52;;;;;;;30.90;17.03;;;-1.10;99.90;;;-0.13;77.99;92740.69;5073652;28;20188;-85
2020/12/11 06:13:43;;;;;;;129.93;19.70;;;-1.10;99.90;;;-0.11;78.07;92736.06;5087763;28;20204;-94
2020/12/11 06:16:12;;;;;;;55.93;17.63;;;-1.00;99.90;;;-0.24;78.59;92705.06;5034426;28;20212;-85
2020/12/11 06:18:41;;;;;;;33.63;17.30;;;-1.10;99.90;;;-0.05;78.40;92724.72;5006068;28;20222;-84
2020/12/11 06:21:07;;;;;;;44.30;17.10;;;-1.00;99.90;;;-0.12;78.54;92697.22;5007967;28;20567;-87
2020/12/11 06:23:40;;;;;;;71.23;18.30;;;-1.00;99.90;;;-0.08;78.88;92712.16;5000535;28;20553;-87
2020/12/11 06:26:14;;;;;;;141.00;20.13;;;-1.00;99.90;;;0.00;78.50;92708.44;5037106;28;20192;-87
2020/12/11 06:29:25;;;;;;;74.97;19.03;;;-0.90;99.90;;;-0.19;78.77;92686.94;5007312;28;20713;-87
2020/12/11 06:31:53;;;;;;;24.47;16.50;;;-1.00;99.90;;;-0.01;78.20;92694.63;4958709;28;20235;-84
2020/12/11 06:34:30;;;;;;;46.53;17.97;;;-1.00;99.90;;;-0.11;79.21;92691.00;4942186;28;20231;-84
2020/12/11 06:36:57;;;;;;;27.50;17.70;;;-1.10;99.90;;;-0.09;78.65;92683.75;4944406;28;20229;-84
2020/12/11 06:39:43;;;;;;;23.57;16.20;;;-1.00;99.90;;;-0.06;78.34;92678.88;4979407;28;20730;-89
2020/12/11 06:42:42;;;;;;;23.63;16.10;;;-1.00;99.90;;;-0.10;78.46;92682.94;4944700;28;20240;-86
2020/12/11 06:45:25;;;;;;;20.67;14.47;;;-1.00;99.90;;;-0.08;78.63;92682.72;4962805;28;21146;-85
2020/12/11 06:47:58;;;;;;;24.70;14.63;;;-1.10;99.90;;;-0.23;78.29;92658.97;4961450;28;20223;-85
2020/12/11 06:50:37;;;;;;;21.30;14.67;;;-1.10;99.90;;;-0.33;77.99;92656.97;4939479;29;20309;-85
2020/12/11 06:53:05;;;;;;;24.07;15.90;;;-1.10;99.90;;;-0.20;78.52;92669.72;4970906;28;20200;-86
2020/12/11 06:55:57;;;;;;;26.90;16.10;;;-1.20;99.90;;;-0.18;78.64;92675.50;4958531;28;20205;-85
2020/12/11 06:58:22;;;;;;;23.60;15.37;;;-1.10;99.90;;;-0.28;78.11;92661.50;4990746;28;20229;-84
2020/12/11 07:00:54;;;;;;;93.03;17.40;;;-1.20;99.90;;;-0.38;78.50;92646.47;4987004;28;20219;-86
2020/12/11 07:03:36;;;;;;;60.47;16.07;;;-1.20;99.90;;;-0.23;78.54;92654.56;4980332;28;20244;-88
2020/12/11 07:06:04;;;;;;;55.57;16.23;;;-1.20;99.90;;;-0.65;78.23;92638.38;4963362;28;20876;-86
2020/12/11 07:08:40;;;;;;;102.57;17.63;;;-1.50;99.90;;;-0.71;78.41;92623.66;5000373;28;20200;-87
2020/12/11 07:11:26;;;;;;;28.70;15.20;;;-1.60;99.90;;;-0.60;78.53;92645.47;5020763;28;20210;-85
2020/12/11 07:13:52;;;;;;;40.20;16.57;;;-1.50;99.90;;;-0.57;78.75;92643.19;5030734;28;20192;-85
2020/12/11 07:16:18;;;;;;;44.30;16.80;;;-1.50;99.90;;;-0.54;78.48;92637.53;5020574;28;20635;-84
2020/12/11 07:18:45;;;;;;;94.40;16.93;;;-1.50;99.90;;;-0.46;78.48;92644.22;5024577;28;20243;-86
2020/12/11 07:21:12;;;;;;;59.63;16.33;;;-1.50;99.90;;;-0.43;78.15;92632.53;5039987;28;20185;-85
2020/12/11 07:23:53;;;;;;;64.03;18.10;;;-1.40;99.90;;;-0.43;79.08;92622.94;5064700;28;20221;-85
2020/12/11 07:26:28;;;;;;;34.27;15.60;;;-1.30;99.90;;;-0.41;78.83;92605.31;5053036;28;20177;-85
2020/12/11 07:29:16;;;;;;;20.33;13.40;;;-1.20;99.90;;;-0.29;79.00;92613.84;5050499;28;20206;-85
2020/12/11 07:31:53;;;;;;;18.13;11.83;;;-1.20;99.90;;;-0.25;78.41;92622.00;5049236;28;20546;-84
2020/12/11 07:34:39;;;;;;;17.43;11.30;;;-1.20;99.90;;;-0.18;78.72;92646.09;5038325;28;20220;-86
2020/12/11 07:37:06;;;;;;;14.77;10.67;;;-1.20;99.90;;;-0.31;78.44;92628.94;5015523;28;20282;-85
2020/12/11 07:39:45;;;;;;;19.00;12.20;;;-1.30;99.90;;;-0.12;78.87;92619.94;5043894;28;20206;-86
2020/12/11 07:42:50;;;;;;;17.87;12.20;;;-1.00;99.90;;;-0.08;79.11;92609.84;5032736;28;20249;-85
2020/12/11 07:45:30;;;;;;;17.98;15.93;;;-0.80;99.90;;;-0.15;78.29;92619.59;5043791;28;20437;-84
2020/12/11 07:48:05;;;;;;;16.97;12.27;;;-1.10;99.90;;;-0.12;78.73;92587.88;5034591;28;20195;-85
2020/12/11 07:50:32;;;;;;;17.57;12.60;;;-1.00;99.90;;;-0.06;78.56;92590.34;5016298;28;20668;-85
2020/12/11 07:53:09;;;;;;;15.20;10.93;;;-1.00;99.90;;;-0.13;78.92;92588.91;5022053;28;20230;-85
2020/12/11 07:55:35;;;;;;;16.67;10.90;;;-0.90;99.90;;;-0.18;78.90;92579.22;5047736;28;20203;-85
2020/12/11 07:58:02;;;;;;;15.90;11.03;;;-1.10;99.90;;;0.10;78.79;92577.63;5016702;28;20227;-86
2020/12/11 08:00:28;;;;;;;13.87;10.40;;;-0.90;99.90;;;0.31;79.14;92577.72;5050050;28;20304;-85
2020/12/11 08:03:05;;;;;;;14.07;10.67;;;-0.80;99.90;;;0.39;78.47;92569.53;5018483;28;20194;-86
2020/12/11 08:05:38;;;;;;;17.07;10.00;;;-0.60;99.90;;;0.41;78.70;92564.09;5040269;28;20183;-85
2020/12/11 08:08:29;;;;;;;13.47;9.70;;;-0.60;99.90;;;0.43;78.40;92551.63;5051099;28;20199;-86
2020/12/11 08:11:05;;;;;;;14.23;9.90;;;-0.50;99.90;;;0.63;78.67;92574.63;5046528;28;20225;-84
2020/12/11 08:14:01;;;;;;;13.13;10.03;;;-0.40;99.90;;;0.73;79.12;92572.97;5037752;28;20625;-85
2020/12/11 08:16:29;;;;;;;13.57;10.13;;;-0.30;99.90;;;0.73;78.75;92557.31;5042305;28;20199;-84
2020/12/11 08:18:56;;;;;;;13.90;10.47;;;-0.40;99.90;;;0.71;78.95;92535.91;5049848;28;20207;-84
2020/12/11 08:21:32;;;;;;;12.90;9.60;;;-0.20;99.90;;;0.89;78.48;92577.38;5055611;28;20216;-84
2020/12/11 08:24:00;;;;;;;14.07;10.10;;;-0.10;99.90;;;0.92;79.07;92560.44;5081622;28;20178;-85
2020/12/11 08:27:21;;;;;;;13.17;9.93;;;0.00;99.90;;;0.85;78.45;92552.78;5066740;28;20191;-85
2020/12/11 08:30:33;;;;;;;12.60;9.93;;;0.00;99.90;;;1.32;78.83;92568.03;5030532;28;20199;-85
2020/12/11 08:33:19;;;;;;;14.27;10.43;;;0.20;99.90;;;1.21;78.33;92548.09;4997438;28;20271;-87
2020/12/11 08:35:59;;;;;;;13.67;10.40;;;0.40;99.90;;;1.15;78.13;92543.81;4997348;28;20250;-87
2020/12/11 08:38:27;;;;;;;14.70;11.00;;;0.40;99.90;;;1.30;78.49;92551.84;5012034;28;20232;-87
2020/12/11 08:41:04;;;;;;;13.13;10.10;;;0.50;99.90;;;1.47;78.55;92552.59;4986809;28;20678;-86
2020/12/11 08:43:50;;;;;;;13.43;10.43;;;0.60;99.90;;;1.55;78.85;92567.81;5036103;28;20648;-86
2020/12/11 08:47:34;;;;;;;13.83;10.60;;;0.60;99.90;;;1.77;78.75;92566.03;5046431;28;20217;-85
2020/12/11 08:49:50;;;;;;;13.33;10.10;;;0.90;99.90;;;1.81;79.36;92574.16;5013099;28;20201;-84
2020/12/11 08:53:01;;;;;;;11.83;9.40;;;0.90;99.90;;;2.01;78.46;92577.75;5033539;28;20608;-86
2020/12/11 08:55:26;;;;;;;12.43;9.20;;;1.10;99.90;;;2.19;78.59;92594.16;5029328;28;20181;-84
2020/12/11 08:58:07;;;;;;;12.97;10.20;;;1.20;99.90;;;2.10;78.40;92580.75;5015779;28;20266;-85
2020/12/11 09:00:46;;;;;;;15.97;10.47;;;1.20;99.90;;;1.89;78.60;92584.94;5004644;28;20265;-85
2020/12/11 09:03:19;;;;;;;13.40;10.57;;;1.10;99.90;;;2.11;78.64;92597.22;5014575;28;20280;-85
2020/12/11 09:05:45;;;;;;;13.73;11.37;;;1.20;99.90;;;2.39;78.93;92605.59;5069061;28;20544;-84
2020/12/11 09:08:11;;;;;;;12.03;10.57;;;1.50;99.90;;;2.38;78.48;92595.41;5039815;28;20649;-85
2020/12/11 09:10:46;;;;;;;14.87;10.90;;;1.60;99.90;;;2.52;78.77;92597.38;5075766;28;20183;-85
2020/12/11 09:13:19;;;;;;;12.17;10.43;;;1.80;99.90;;;2.55;78.57;92598.72;5060051;28;20182;-85
2020/12/11 09:15:45;;;;;;;12.87;10.07;;;1.80;99.90;;;2.59;78.99;92594.53;5062000;28;20563;-85
2020/12/11 09:18:11;;;;;;;13.93;10.47;;;1.80;99.90;;;2.54;78.76;92597.13;5081426;28;20684;-85
2020/12/11 09:20:45;;;;;;;26.10;11.80;;;1.80;99.90;;;2.68;78.46;92605.34;5076309;28;20178;-85
2020/12/11 09:23:13;;;;;;;15.73;10.33;;;1.90;99.90;;;2.79;78.43;92586.88;5059610;28;20201;-85
2020/12/11 09:25:52;;;;;;;13.30;10.23;;;2.20;99.90;;;2.93;78.71;92614.19;5057457;28;20179;-86
2020/12/11 09:28:43;;;;;;;11.50;9.77;;;2.30;99.90;;;2.91;78.72;92624.13;5057706;28;20589;-87
2020/12/11 09:31:25;;;;;;;11.40;9.07;;;2.40;99.90;;;2.85;78.81;92627.75;5071270;28;20175;-86
2020/12/11 09:34:04;;;;;;;12.03;9.90;;;2.30;99.90;;;2.97;78.45;92636.22;5064720;28;20198;-86
2020/12/11 09:36:42;;;;;;;13.00;10.53;;;2.40;99.90;;;3.08;78.76;92619.56;5051357;28;20585;-86
2020/12/11 09:39:17;;;;;;;13.20;10.60;;;2.50;99.90;;;3.13;78.71;92615.38;5083854;28;20178;-90
2020/12/11 09:42:02;;;;;;;13.40;10.80;;;2.50;99.90;;;2.99;78.76;92623.66;5061623;28;20199;-91
2020/12/11 09:45:18;;;;;;;15.00;11.30;;;2.40;99.90;;;2.94;78.22;92625.47;5075115;28;20187;-88
2020/12/11 09:48:30;;;;;;;15.17;11.83;;;2.30;99.90;;;2.87;78.26;92615.19;5073541;28;20186;-89
2020/12/11 09:56:57;;;;;;;15.07;11.43;;;2.70;99.90;;;3.48;78.34;92615.66;4932496;29;20365;-89
2020/12/11 09:59:47;;;;;;;15.80;11.80;;;2.80;99.90;;;3.17;78.21;92598.94;4935134;29;20542;-88
2020/12/11 10:02:52;;;;;;;14.93;11.27;;;2.60;99.90;;;3.41;78.25;92628.16;4915014;29;20698;-86
2020/12/11 10:05:49;;;;;;;14.20;11.27;;;2.80;99.90;;;3.38;78.26;92600.66;4928966;29;20282;-86
2020/12/11 10:08:24;;;;;;;15.33;12.17;;;2.80;99.90;;;3.44;78.47;92612.75;4905051;29;20267;-87
2020/12/11 10:11:01;;;;;;;15.33;12.00;;;2.80;99.90;;;3.58;78.54;92615.72;4904336;29;20262;-88
2020/12/11 10:13:43;;;;;;;13.43;10.87;;;2.90;99.90;;;3.48;78.49;92605.97;4925811;29;20198;-87
2020/12/11 10:16:43;;;;;;;14.57;11.80;;;3.00;99.90;;;3.64;78.07;92614.69;4924368;29;20270;-87
2020/12/11 10:19:11;;;;;;;14.00;11.37;;;3.00;99.90;;;3.56;77.82;92600.22;4831935;29;20222;-89
2020/12/11 10:21:37;;;;;;;14.80;11.43;;;3.00;99.90;;;3.27;77.79;92577.28;4849652;29;20202;-87
2020/12/11 10:24:15;;;;;;;15.37;11.90;;;2.90;99.90;;;3.30;78.32;92616.03;4847846;29;20227;-87
2020/12/11 10:26:51;;;;;;;15.10;11.57;;;2.60;99.90;;;3.31;77.94;92600.09;4856484;29;20200;-87
2020/12/11 10:29:26;;;;;;;14.93;11.33;;;2.60;99.90;;;3.35;78.43;92595.16;4896836;29;20189;-87
2020/12/11 10:32:05;;;;;;;14.17;11.37;;;2.60;99.90;;;3.41;78.31;92587.06;4894309;29;20204;-87
2020/12/11 10:35:08;;;;;;;14.73;11.63;;;2.70;99.90;;;3.35;77.96;92587.28;4946305;28;20191;-87
2020/12/11 10:37:37;;;;;;;16.80;12.33;;;2.50;99.90;;;3.31;77.71;92570.50;4935479;29;20295;-86
2020/12/11 10:40:11;;;;;;;14.10;11.30;;;2.70;99.90;;;3.45;78.33;92576.88;4942183;29;20220;-88
2020/12/11 10:42:51;;;;;;;14.53;11.83;;;2.80;99.90;;;3.53;77.86;92590.25;4945588;29;20204;-87
2020/12/11 10:45:18;;;;;;;15.37;12.10;;;2.90;99.90;;;3.52;78.29;92572.22;4905956;29;20208;-87
2020/12/11 10:47:53;;;;;;;14.30;11.33;;;3.10;99.90;;;3.69;78.01;92582.50;4905802;29;20857;-87
2020/12/11 10:50:23;;;;;;;14.37;11.33;;;3.10;99.90;;;3.69;78.01;92558.94;4921342;29;20211;-87
2020/12/11 10:53:13;;;;;;;14.87;12.37;;;3.20;99.90;;;3.66;78.08;92549.72;4918875;29;20219;-87
2020/12/11 10:55:58;;;;;;;14.47;11.30;;;3.20;99.90;;;3.92;78.30;92576.84;4973713;28;20804;-86
2020/12/11 10:58:53;;;;;;;14.97;11.57;;;3.40;99.90;;;3.99;77.72;92545.94;4982302;28;20318;-86
2020/12/11 11:01:30;;;;;;;14.20;11.77;;;3.50;99.90;;;3.70;77.61;92529.06;4965712;28;20249;-85
2020/12/11 11:04:16;;;;;;;27.47;12.47;;;3.20;99.90;;;3.59;77.64;92526.38;4981658;28;20179;-88
2020/12/11 11:06:54;;;;;;;16.37;12.63;;;3.20;99.90;;;3.40;77.62;92532.31;4963717;28;20185;-87